EZY41RE LPMA-EGGW
Flight info
| Callsign | EZY41RE |
|---|---|
| Flight time | N/A |
| Altitude | 34000 |
| Route | DEGUN DCT ROLAR DCT TUNAV/N0443F360 DCT DEMOS DCT LOTEE DCT DEGEX DCT OZNOH DCT ARTIV DCT DIKRO UM185 LUGIS/N0367F240 M185 TELTU |
| Aircraft | A320/M-SDE3FGHIRWY/LB1 |
Departure
| Time | 2026-05-06 16:57 |
|---|---|
| Airport | Cristiano Ronaldo International Airport (LPMA) |
Arrival
| Time | N/A |
|---|---|
| Airport | London Luton Airport (EGGW) |
| Time | Latitude | Longitude | Altitude | Speed | Heading |
|---|---|---|---|---|---|
| 2026-05-06 15:53 | 32.69307 | -16.77726 | 169 ft | 0 kts | 139° |
| 2026-05-06 16:49 | 32.69312 | -16.77731 | 196 ft | 4 kts | 139° |
| 2026-05-06 16:49 | 32.69331 | -16.77752 | 169 ft | 2 kts | 138° |
| 2026-05-06 16:49 | 32.69348 | -16.77767 | 169 ft | 4 kts | 163° |
| 2026-05-06 16:49 | 32.69365 | -16.77763 | 169 ft | 4 kts | 226° |
| 2026-05-06 16:50 | 32.69376 | -16.77749 | 169 ft | 0 kts | 226° |
| 2026-05-06 16:52 | 32.69373 | -16.77752 | 169 ft | 2 kts | 226° |
| 2026-05-06 16:52 | 32.69353 | -16.77777 | 169 ft | 6 kts | 226° |
| 2026-05-06 16:52 | 32.69323 | -16.77815 | 169 ft | 6 kts | 225° |
| 2026-05-06 16:53 | 32.69305 | -16.77837 | 169 ft | 4 kts | 226° |
| 2026-05-06 16:53 | 32.69290 | -16.77868 | 169 ft | 5 kts | 258° |
| 2026-05-06 16:53 | 32.69289 | -16.77880 | 169 ft | 0 kts | 269° |
| 2026-05-06 16:54 | 32.69289 | -16.77897 | 169 ft | 5 kts | 269° |
| 2026-05-06 16:54 | 32.69288 | -16.77965 | 169 ft | 10 kts | 269° |
| 2026-05-06 16:54 | 32.69268 | -16.78053 | 168 ft | 13 kts | 231° |
| 2026-05-06 16:54 | 32.69194 | -16.78140 | 165 ft | 16 kts | 224° |
| 2026-05-06 16:55 | 32.69111 | -16.78237 | 160 ft | 17 kts | 224° |
| 2026-05-06 16:55 | 32.69021 | -16.78341 | 155 ft | 19 kts | 224° |
| 2026-05-06 16:55 | 32.68931 | -16.78402 | 153 ft | 13 kts | 194° |
| 2026-05-06 16:55 | 32.68884 | -16.78457 | 153 ft | 8 kts | 293° |
| 2026-05-06 16:56 | 32.68926 | -16.78452 | 153 ft | 7 kts | 45° |
| 2026-05-06 16:56 | 32.68935 | -16.78443 | 153 ft | 0 kts | 44° |
| 2026-05-06 16:56 | 32.68998 | -16.78370 | 154 ft | 45 kts | 44° |
| 2026-05-06 16:56 | 32.69409 | -16.77888 | 171 ft | 119 kts | 44° |
| 2026-05-06 16:57 | 32.70143 | -16.77038 | 294 ft | 168 kts | 39° |
| 2026-05-06 16:57 | 32.70948 | -16.76009 | 1015 ft | 172 kts | 56° |
| 2026-05-06 16:57 | 32.71267 | -16.74595 | 1436 ft | 194 kts | 96° |
| 2026-05-06 16:57 | 32.70783 | -16.73024 | 1715 ft | 215 kts | 110° |
| 2026-05-06 16:58 | 32.70195 | -16.71290 | 2089 ft | 238 kts | 110° |
| 2026-05-06 16:58 | 32.69586 | -16.69444 | 2517 ft | 257 kts | 108° |
| 2026-05-06 16:58 | 32.69352 | -16.68723 | 2762 ft | 262 kts | 107° |
| 2026-05-06 16:58 | 32.68696 | -16.66688 | 3561 ft | 266 kts | 107° |
| 2026-05-06 16:59 | 32.68030 | -16.64608 | 4351 ft | 273 kts | 108° |
| 2026-05-06 16:59 | 32.67355 | -16.62478 | 5243 ft | 279 kts | 109° |
| 2026-05-06 16:59 | 32.66662 | -16.60295 | 6095 ft | 287 kts | 109° |
| 2026-05-06 16:59 | 32.66010 | -16.58029 | 7169 ft | 293 kts | 101° |
| 2026-05-06 17:00 | 32.65887 | -16.55608 | 8143 ft | 294 kts | 79° |
| 2026-05-06 17:00 | 32.66441 | -16.53343 | 9049 ft | 289 kts | 59° |
| 2026-05-06 17:00 | 32.67598 | -16.51430 | 9857 ft | 285 kts | 41° |
| 2026-05-06 17:00 | 32.69048 | -16.49805 | 10416 ft | 295 kts | 40° |
| 2026-05-06 17:01 | 32.70624 | -16.48044 | 10598 ft | 318 kts | 40° |
| 2026-05-06 17:01 | 32.72245 | -16.46217 | 10965 ft | 332 kts | 41° |
| 2026-05-06 17:01 | 32.73929 | -16.44301 | 11566 ft | 338 kts | 41° |
| 2026-05-06 17:01 | 32.75654 | -16.42325 | 12226 ft | 342 kts | 41° |
| 2026-05-06 17:02 | 32.77356 | -16.40372 | 12854 ft | 347 kts | 41° |
| 2026-05-06 17:02 | 32.79100 | -16.38371 | 13489 ft | 351 kts | 41° |
| 2026-05-06 17:02 | 32.80870 | -16.36341 | 14094 ft | 356 kts | 41° |
| 2026-05-06 17:02 | 32.82660 | -16.34289 | 14689 ft | 359 kts | 41° |
| 2026-05-06 17:03 | 32.84469 | -16.32211 | 15296 ft | 363 kts | 41° |
| 2026-05-06 17:03 | 32.86293 | -16.30118 | 15880 ft | 366 kts | 40° |
| 2026-05-06 17:03 | 32.88136 | -16.28002 | 16465 ft | 369 kts | 40° |
| 2026-05-06 17:03 | 32.89992 | -16.25873 | 17055 ft | 372 kts | 40° |
| 2026-05-06 17:04 | 32.91865 | -16.23726 | 17627 ft | 375 kts | 40° |
| 2026-05-06 17:04 | 32.93749 | -16.21562 | 18184 ft | 378 kts | 40° |
| 2026-05-06 17:04 | 32.95651 | -16.19379 | 18687 ft | 381 kts | 40° |
| 2026-05-06 17:04 | 32.97566 | -16.17180 | 19187 ft | 383 kts | 40° |
| 2026-05-06 17:05 | 32.99490 | -16.14968 | 19695 ft | 385 kts | 40° |
| 2026-05-06 17:05 | 33.01418 | -16.12748 | 20207 ft | 386 kts | 40° |
| 2026-05-06 17:05 | 33.03351 | -16.10517 | 20707 ft | 388 kts | 40° |
| 2026-05-06 17:05 | 33.05293 | -16.08273 | 21216 ft | 389 kts | 39° |
| 2026-05-06 17:06 | 33.07243 | -16.06023 | 21711 ft | 391 kts | 39° |
| 2026-05-06 17:06 | 33.09202 | -16.03765 | 22186 ft | 393 kts | 39° |
| 2026-05-06 17:06 | 33.11169 | -16.01496 | 22669 ft | 394 kts | 39° |
| 2026-05-06 17:06 | 33.13144 | -15.99218 | 23156 ft | 396 kts | 39° |
| 2026-05-06 17:07 | 33.15141 | -15.96912 | 23476 ft | 402 kts | 39° |
| 2026-05-06 17:07 | 33.17160 | -15.94580 | 23838 ft | 405 kts | 39° |
| 2026-05-06 17:07 | 33.19190 | -15.92233 | 24229 ft | 407 kts | 39° |
| 2026-05-06 17:07 | 33.21220 | -15.89878 | 24644 ft | 407 kts | 39° |
| 2026-05-06 17:08 | 33.23256 | -15.87513 | 25036 ft | 409 kts | 39° |
| 2026-05-06 17:08 | 33.25294 | -15.85145 | 25427 ft | 409 kts | 39° |
| 2026-05-06 17:08 | 33.27339 | -15.82769 | 25800 ft | 411 kts | 38° |
| 2026-05-06 17:08 | 33.29391 | -15.80384 | 26180 ft | 412 kts | 38° |
| 2026-05-06 17:09 | 33.31446 | -15.77994 | 26546 ft | 413 kts | 38° |
| 2026-05-06 17:09 | 33.33509 | -15.75594 | 26908 ft | 414 kts | 38° |
| 2026-05-06 17:09 | 33.35577 | -15.73185 | 27262 ft | 416 kts | 38° |
| 2026-05-06 17:09 | 33.37651 | -15.70769 | 27625 ft | 417 kts | 38° |
| 2026-05-06 17:10 | 33.39735 | -15.68342 | 27980 ft | 418 kts | 38° |
| 2026-05-06 17:10 | 33.41947 | -15.66122 | 28325 ft | 413 kts | 29° |
| 2026-05-06 17:10 | 33.44408 | -15.64404 | 28668 ft | 408 kts | 20° |
| 2026-05-06 17:10 | 33.46983 | -15.62956 | 28975 ft | 410 kts | 20° |
| 2026-05-06 17:11 | 33.49578 | -15.61496 | 29249 ft | 413 kts | 20° |
| 2026-05-06 17:11 | 33.52180 | -15.60027 | 29549 ft | 414 kts | 20° |
| 2026-05-06 17:11 | 33.54757 | -15.58567 | 29860 ft | 416 kts | 20° |
| 2026-05-06 17:11 | 33.57374 | -15.57076 | 30152 ft | 417 kts | 20° |
| 2026-05-06 17:12 | 33.59999 | -15.55580 | 30405 ft | 419 kts | 20° |
| 2026-05-06 17:12 | 33.62628 | -15.54083 | 30712 ft | 418 kts | 20° |
| 2026-05-06 17:12 | 33.65255 | -15.52588 | 31020 ft | 418 kts | 20° |
| 2026-05-06 17:12 | 33.67881 | -15.51092 | 31311 ft | 418 kts | 20° |
| 2026-05-06 17:13 | 33.70510 | -15.49596 | 31596 ft | 418 kts | 20° |
| 2026-05-06 17:13 | 33.73140 | -15.48101 | 31885 ft | 418 kts | 20° |
| 2026-05-06 17:13 | 33.75772 | -15.46603 | 32188 ft | 418 kts | 20° |
| 2026-05-06 17:13 | 33.78396 | -15.45108 | 32533 ft | 417 kts | 20° |
| 2026-05-06 17:14 | 33.81016 | -15.43617 | 32839 ft | 417 kts | 20° |
| 2026-05-06 17:14 | 33.83638 | -15.42123 | 33128 ft | 417 kts | 20° |
| 2026-05-06 17:14 | 33.86255 | -15.40630 | 33414 ft | 417 kts | 20° |
| 2026-05-06 17:14 | 33.88876 | -15.39128 | 33691 ft | 417 kts | 20° |
| 2026-05-06 17:15 | 33.91496 | -15.37627 | 33963 ft | 417 kts | 20° |
| 2026-05-06 17:15 | 33.94121 | -15.36124 | 34079 ft | 418 kts | 20° |
| 2026-05-06 17:15 | 33.96767 | -15.34610 | 34088 ft | 424 kts | 20° |
| 2026-05-06 17:16 | 34.02175 | -15.31515 | 34090 ft | 436 kts | 20° |
| 2026-05-06 17:16 | 34.07690 | -15.28348 | 34086 ft | 440 kts | 20° |
| 2026-05-06 17:17 | 34.13222 | -15.25157 | 34086 ft | 441 kts | 20° |
| 2026-05-06 17:17 | 34.18752 | -15.21962 | 34086 ft | 441 kts | 20° |
| 2026-05-06 17:18 | 34.24232 | -15.18607 | 34086 ft | 443 kts | 24° |
| 2026-05-06 17:18 | 34.29578 | -15.14862 | 34086 ft | 444 kts | 25° |
| 2026-05-06 17:19 | 34.34882 | -15.11021 | 34103 ft | 444 kts | 25° |
| 2026-05-06 17:19 | 34.40203 | -15.07247 | 34102 ft | 443 kts | 25° |
| 2026-05-06 17:20 | 34.45544 | -15.03533 | 34103 ft | 442 kts | 24° |
| 2026-05-06 17:20 | 34.50881 | -14.99819 | 34101 ft | 442 kts | 25° |
| 2026-05-06 17:21 | 34.56210 | -14.96082 | 34096 ft | 442 kts | 25° |
| 2026-05-06 17:21 | 34.61538 | -14.92341 | 34121 ft | 443 kts | 25° |
| 2026-05-06 17:22 | 34.66871 | -14.88591 | 34095 ft | 443 kts | 25° |
| 2026-05-06 17:22 | 34.72208 | -14.84830 | 34080 ft | 444 kts | 25° |
| 2026-05-06 17:23 | 34.77514 | -14.81081 | 34080 ft | 444 kts | 25° |
| 2026-05-06 17:23 | 34.82859 | -14.77298 | 34071 ft | 444 kts | 25° |
| 2026-05-06 17:24 | 34.88202 | -14.73509 | 34101 ft | 444 kts | 25° |
| 2026-05-06 17:24 | 34.93543 | -14.69720 | 34090 ft | 444 kts | 25° |
| 2026-05-06 17:25 | 34.98884 | -14.65939 | 34093 ft | 444 kts | 25° |
| 2026-05-06 17:25 | 35.04223 | -14.62146 | 34092 ft | 444 kts | 25° |
| 2026-05-06 17:26 | 35.09554 | -14.58349 | 34085 ft | 444 kts | 25° |
| 2026-05-06 17:26 | 35.14885 | -14.54538 | 34099 ft | 444 kts | 25° |
| 2026-05-06 17:27 | 35.20228 | -14.50718 | 34078 ft | 445 kts | 25° |
| 2026-05-06 17:27 | 35.25581 | -14.46895 | 34070 ft | 446 kts | 25° |
| 2026-05-06 17:28 | 35.30933 | -14.43056 | 34071 ft | 446 kts | 25° |
| 2026-05-06 17:28 | 35.36286 | -14.39206 | 34069 ft | 446 kts | 25° |
| 2026-05-06 17:29 | 35.41643 | -14.35362 | 34076 ft | 446 kts | 25° |
| 2026-05-06 17:29 | 35.46973 | -14.31541 | 34073 ft | 447 kts | 25° |
| 2026-05-06 17:30 | 35.52373 | -14.27644 | 34061 ft | 448 kts | 25° |